Time;durP1;ratioP1;P1;durP2;ratioP2;P2;SDS_P1;SDS_P2;PMS_P1;PMS_P2;Temp;Humidity;BMP_temperature;BMP_pressure;BME280_temperature;BME280_humidity;BME280_pressure;Samples;Min_cycle;Max_cycle;Signal;HPM_P1;HPM_P2
2022/07/01 00:02:43;;;;;;;8.38;4.85;;;;;;;26.05;50.52;99853.42;2239559;86;25805;-76
2022/07/01 00:06:21;;;;;;;10.85;6.42;;;;;;;25.99;50.78;99856.42;2259206;86;26127;-78
2022/07/01 00:09:50;;;;;;;7.67;5.15;;;;;;;25.96;51.04;99853.90;2250430;86;25918;-77
2022/07/01 00:13:28;;;;;;;8.18;5.42;;;;;;;25.95;51.65;99855.29;2268465;86;26760;-76
2022/07/01 00:17:10;;;;;;;16.32;5.33;;;;;;;25.86;51.72;99852.14;2229975;86;25728;-77
2022/07/01 00:20:44;;;;;;;9.88;5.45;;;;;;;25.87;52.21;99854.33;2272212;86;25689;-77
2022/07/01 00:24:23;;;;;;;11.28;6.03;;;;;;;25.82;52.43;99855.90;2241747;86;25821;-77
2022/07/01 00:27:53;;;;;;;;;;;;;;;25.81;52.42;99854.62;2220564;87;26148;-77
2022/07/01 00:31:29;;;;;;;;;;;;;;;;;;;;;
2022/07/01 00:35:00;;;;;;;9.58;6.72;;;;;;;25.84;52.97;99863.83;2211195;87;26102;-77
2022/07/01 00:38:23;;;;;;;13.43;5.72;;;;;;;25.87;52.52;99862.34;2184123;88;25637;-79
2022/07/01 00:41:51;;;;;;;8.98;5.62;;;;;;;25.89;52.76;99865.82;2194116;87;25945;-80
2022/07/01 00:45:26;;;;;;;10.85;5.67;;;;;;;25.87;52.70;99862.34;2126884;90;25459;-79
2022/07/01 00:49:02;;;;;;;13.15;6.22;;;;;;;25.80;53.64;99863.58;2121634;91;26179;-79
2022/07/01 00:52:35;;;;;;;10.65;6.67;;;;;;;25.77;53.56;99861.02;2142543;90;25668;-78
2022/07/01 00:56:29;;;;;;;9.18;6.35;;;;;;;25.73;53.83;99859.44;2122977;91;25865;-78
2022/07/01 00:59:39;;;;;;;12.95;5.97;;;;;;;25.66;53.93;99869.54;2105266;92;25669;-77
2022/07/01 01:03:14;;;;;;;12.07;6.23;;;;;;;25.64;54.17;99872.73;2127724;91;26444;-80
2022/07/01 01:06:46;;;;;;;8.05;5.85;;;;;;;25.63;53.88;99875.88;2125658;91;26086;-77
2022/07/01 01:10:19;;;;;;;14.83;5.80;;;;;;;25.63;54.27;99879.02;2116767;91;25471;-76
2022/07/01 01:13:58;;;;;;;7.45;5.90;;;;;;;25.59;54.20;99878.77;2127971;91;25939;-77
2022/07/01 01:17:43;;;;;;;9.10;5.95;;;;;;;25.65;54.03;99883.84;2118584;90;25854;-76
2022/07/01 01:21:28;;;;;;;;;;;;;;;;;;;;;
2022/07/01 01:25:11;;;;;;;9.83;5.28;;;;;;;25.91;53.63;99926.68;2116550;88;26252;-77
2022/07/01 01:28:54;;;;;;;8.40;5.40;;;;;;;26.16;53.13;99926.88;2053464;94;25681;-77
2022/07/01 01:32:31;;;;;;;10.18;6.08;;;;;;;26.32;52.66;99935.38;2049377;94;25661;-77
2022/07/01 01:36:01;;;;;;;7.67;5.97;;;;;;;26.47;52.25;99942.28;2101703;92;26385;-79
2022/07/01 01:43:01;;;;;;;12.45;6.20;;;;;;;26.55;51.52;99964.17;2105248;91;25880;-79
2022/07/01 01:46:36;;;;;;;7.17;5.20;;;;;;;26.54;51.46;99979.83;2084087;91;25853;-80
2022/07/01 01:49:51;;;;;;;9.78;5.65;;;;;;;26.64;51.14;99979.78;2076353;92;26516;-78
2022/07/01 01:53:25;;;;;;;11.28;5.15;;;;;;;26.50;50.92;99956.87;2081796;92;25806;-80
2022/07/01 01:56:49;;;;;;;18.15;6.53;;;;;;;26.49;51.03;99957.79;2080324;92;26384;-76
2022/07/01 02:00:23;;;;;;;8.00;5.78;;;;;;;26.45;51.02;99972.22;2060448;92;25803;-76
2022/07/01 02:03:46;;;;;;;6.05;5.55;;;;;;;26.45;51.09;99976.22;2091174;91;25993;-75
2022/07/01 02:07:43;;;;;;;;;;;;;;;;;;;;;
2022/07/01 02:10:59;;;;;;;12.10;5.40;;;;;;;26.63;50.87;99986.08;2097991;90;25761;-76
2022/07/01 02:14:23;;;;;;;6.35;5.42;;;;;;;26.69;50.61;99984.41;2146133;89;25688;-77
2022/07/01 02:17:47;;;;;;;11.15;6.72;;;;;;;26.67;50.39;99977.43;2179953;89;25855;-77
2022/07/01 02:21:07;;;;;;;8.95;6.00;;;;;;;26.56;50.44;99983.27;2136326;90;25794;-79
2022/07/01 02:24:57;;;;;;;7.47;5.92;;;;;;;26.61;50.48;99984.80;2187071;88;25842;-76
2022/07/01 02:32:12;;;;;;;19.62;6.17;;;;;;;26.57;50.15;99972.52;2135416;91;25831;-76
2022/07/01 02:35:46;;;;;;;5.80;5.20;;;;;;;26.41;50.30;99971.50;2039738;94;25802;-77
2022/07/01 02:39:21;;;;;;;14.05;6.22;;;;;;;26.36;50.41;99986.44;2036613;94;25691;-76
2022/07/01 02:46:33;;;;;;;5.90;5.30;;;;;;;26.46;50.49;99980.18;1980164;98;32936;-77
2022/07/01 02:49:58;;;;;;;7.72;5.15;;;;;;;26.43;50.24;99970.97;1975476;97;25418;-77
2022/07/01 02:53:53;;;;;;;;;;;;;;;;;;;;;
2022/07/01 02:57:22;;;;;;;14.03;5.87;;;;;;;26.19;50.33;99983.70;1958937;98;25784;-77
2022/07/01 03:04:34;;;;;;;10.32;4.72;;;;;;;26.33;50.47;99992.40;1933515;99;26076;-79
2022/07/01 03:08:08;;;;;;;8.68;5.20;;;;;;;26.45;50.28;99993.59;1933140;98;26166;-78
2022/07/01 03:12:25;;;;;;;5.90;4.80;;;;;;;26.37;50.11;99996.66;1936841;99;25851;-79
2022/07/01 03:16:13;;;;;;;12.30;4.85;;;;;;;26.44;50.23;100007.44;1937444;97;25935;-78
2022/07/01 03:19:55;;;;;;;8.98;5.37;;;;;;;26.57;50.15;100012.63;1878374;103;25930;-78
2022/07/01 03:24:23;;;;;;;;;;;;;;;;;;;;;
2022/07/01 03:29:13;;;;;;;;;;;;;;;;;;;;;
2022/07/01 03:32:43;;;;;;;15.45;6.33;;;;;;;26.21;50.40;99984.95;1801807;107;26265;-79
2022/07/01 03:36:28;;;;;;;17.37;6.72;;;;;;;26.20;50.84;99985.90;1721072;111;25998;-78
2022/07/01 03:43:49;;;;;;;17.15;6.70;;;;;;;26.43;50.92;99986.14;1726595;112;25934;-79
2022/07/01 03:47:13;;;;;;;12.50;6.60;;;;;;;26.51;50.80;99979.98;1724161;111;26204;-77
2022/07/01 03:50:39;;;;;;;13.38;6.58;;;;;;;26.41;50.90;99973.31;1728564;112;25982;-81
2022/07/01 03:54:42;;;;;;;14.65;5.90;;;;;;;26.35;51.09;99973.13;1724421;112;25783;-78
2022/07/01 04:02:18;;;;;;;17.25;8.35;;;;;;;26.33;51.52;99958.52;1788786;108;25878;-77
2022/07/01 04:06:14;;;;;;;;;;;;;;;;;;;;;
2022/07/01 04:09:45;;;;;;;11.53;7.95;;;;;;;26.55;51.48;99969.52;1842957;103;25828;-78
2022/07/01 04:13:21;;;;;;;14.53;6.62;;;;;;;26.59;51.48;99973.77;1863585;104;25755;-77
2022/07/01 04:16:53;;;;;;;9.48;6.62;;;;;;;26.69;51.53;99972.38;1882680;102;25937;-78
2022/07/01 04:20:19;;;;;;;15.80;6.85;;;;;;;26.70;51.61;99977.28;1913531;100;25875;-77
2022/07/01 04:24:05;;;;;;;7.10;6.37;;;;;;;26.80;51.57;99968.72;1930869;100;25987;-77
2022/07/01 04:28:03;;;;;;;;;;;;;;;;;;;;;
2022/07/01 04:31:56;;;;;;;;;;;;;;;;;;;;;
2022/07/01 04:35:06;;;;;;;9.43;7.73;;;;;;;26.90;51.78;99966.45;2024770;95;26124;-78
2022/07/01 04:38:45;;;;;;;10.93;8.20;;;;;;;26.97;51.79;99960.31;2053086;94;25815;-78
2022/07/01 04:42:54;;;;;;;15.70;8.65;;;;;;;27.10;51.69;99954.73;2074519;93;25845;-77
2022/07/01 04:46:29;;;;;;;13.95;7.80;;;;;;;27.13;51.68;99957.73;2060525;94;25835;-78
2022/07/01 04:50:03;;;;;;;9.43;8.03;;;;;;;27.21;51.72;99958.22;2083754;93;25783;-80
2022/07/01 04:53:35;;;;;;;9.15;8.35;;;;;;;27.26;51.62;99944.97;2055374;94;26098;-79
2022/07/01 04:57:27;;;;;;;11.10;8.60;;;;;;;27.34;51.62;99954.41;2049735;92;26505;-79
2022/07/01 05:04:57;;;;;;;12.88;8.55;;;;;;;27.56;51.50;99952.33;1892557;103;25821;-77
2022/07/01 05:08:28;;;;;;;9.23;7.72;;;;;;;27.45;51.53;99950.70;1901559;100;26357;-78
2022/07/01 05:12:03;;;;;;;11.00;8.58;;;;;;;27.36;51.70;99946.70;1867905;103;26339;-80
2022/07/01 05:15:26;;;;;;;8.78;7.97;;;;;;;27.31;51.91;99947.42;1878040;104;26057;-82
2022/07/01 05:22:42;;;;;;;10.60;9.23;;;;;;;27.22;52.01;99946.56;1825203;107;25894;-80
2022/07/01 05:26:06;;;;;;;9.73;8.88;;;;;;;27.13;52.31;99947.89;1806468;108;25935;-78
2022/07/01 05:29:28;;;;;;;10.10;8.78;;;;;;;27.06;52.48;99947.78;1805004;107;26061;-79
2022/07/01 05:33:12;;;;;;;9.78;8.83;;;;;;;27.18;52.76;99947.67;1828224;107;25814;-80
2022/07/01 05:36:42;;;;;;;15.53;9.00;;;;;;;27.36;52.40;99944.02;1886932;101;25921;-79
2022/07/01 05:40:15;;;;;;;21.43;8.47;;;;;;;27.33;52.48;99948.67;1891821;100;25995;-79
2022/07/01 05:43:40;;;;;;;10.23;9.23;;;;;;;27.38;52.58;99948.83;1922560;101;25998;-79
2022/07/01 05:47:07;;;;;;;12.78;8.73;;;;;;;27.59;52.37;99941.94;1919468;100;26012;-78
2022/07/01 05:50:30;;;;;;;9.13;8.35;;;;;;;27.67;52.36;99941.89;1865195;103;25866;-80
2022/07/01 05:53:56;;;;;;;16.57;8.85;;;;;;;27.95;51.96;99939.96;1892447;103;25957;-81
2022/07/01 05:57:32;;;;;;;12.88;9.18;;;;;;;28.16;51.47;99931.19;1869719;103;27162;-80
2022/07/01 06:01:08;;;;;;;7.60;7.00;;;;;;;28.29;51.23;99943.43;1842912;104;25980;-81
2022/07/01 06:04:59;;;;;;;;;;;;;;;;;;;;;
2022/07/01 06:08:24;;;;;;;10.08;8.40;;;;;;;28.79;51.74;99941.02;1928476;97;25425;-81
2022/07/01 06:12:08;;;;;;;8.28;7.62;;;;;;;29.34;49.59;99943.09;1886557;101;26167;-81
2022/07/01 06:15:34;;;;;;;10.00;7.47;;;;;;;29.59;50.16;99945.59;1836172;105;26058;-81
2022/07/01 06:19:30;;;;;;;12.33;8.25;;;;;;;30.00;49.57;99938.97;1872454;99;26500;-81
2022/07/01 06:22:54;;;;;;;7.58;6.85;;;;;;;30.43;47.86;99940.25;1958792;97;26524;-81
2022/07/01 06:26:48;;;;;;;7.70;6.90;;;;;;;30.80;47.97;99943.22;1936214;99;25837;-88
2022/07/01 06:30:19;;;;;;;9.93;6.78;;;;;;;30.98;47.13;99939.30;1977651;97;25987;-82
2022/07/01 06:33:53;;;;;;;9.43;7.30;;;;;;;31.37;46.33;99949.64;1929901;98;25899;-82
2022/07/01 06:37:35;;;;;;;;;;;;;;;;;;;;;
2022/07/01 06:45:04;;;;;;;9.55;7.08;;;;;;;32.06;44.73;99944.73;1892712;100;26214;-83
2022/07/01 06:48:57;;;;;;;12.85;7.62;;;;;;;32.41;43.75;99942.64;1886986;101;26357;-82
2022/07/01 06:52:35;;;;;;;8.40;6.40;;;;;;;32.52;43.67;99939.17;1886531;102;26166;-83
2022/07/01 06:55:48;;;;;;;8.45;6.05;;;;;;;32.76;43.18;99944.56;1749800;108;26122;-83
2022/07/01 06:59:29;;;;;;;12.07;6.80;;;;;;;33.01;43.18;99940.86;1718623;111;26073;-83
2022/07/01 07:07:13;;;;;;;12.80;6.05;;;;;;;33.50;42.33;99948.74;1740737;108;26245;-83
2022/07/01 07:10:54;;;;;;;8.43;7.60;;;;;;;34.10;41.74;99939.06;1712409;110;25948;-82
2022/07/01 07:14:23;;;;;;;11.88;6.28;;;;;;;34.29;40.03;99937.90;1752224;109;26021;-82
2022/07/01 07:17:58;;;;;;;14.38;7.12;;;;;;;34.48;39.85;99935.89;1749911;110;26030;-83
2022/07/01 07:21:36;;;;;;;13.58;6.92;;;;;;;34.65;39.85;99949.40;1763859;108;26082;-82
2022/07/01 07:28:48;;;;;;;15.75;7.42;;;;;;;34.61;36.91;99956.92;1752217;109;25777;-83
2022/07/01 07:32:30;;;;;;;15.35;8.03;;;;;;;34.22;38.06;99952.92;1738352;109;26040;-82
2022/07/01 07:36:03;;;;;;;12.23;7.90;;;;;;;33.95;38.18;99943.33;1777537;107;26923;-83
2022/07/01 07:39:45;;;;;;;15.30;7.75;;;;;;;33.81;38.93;99940.89;1779093;108;26335;-82
2022/07/01 07:43:25;;;;;;;24.15;7.75;;;;;;;33.80;38.11;99944.09;1721984;111;26430;-82
2022/07/01 07:47:24;;;;;;;;;;;;;;;;;;;;;
2022/07/01 07:51:01;;;;;;;20.57;7.97;;;;;;;34.28;39.43;99937.05;1696457;114;25967;-83
2022/07/01 07:54:26;;;;;;;15.48;7.62;;;;;;;34.65;38.54;99940.78;1700306;106;26320;-87
2022/07/01 07:57:49;;;;;;;17.85;7.75;;;;;;;34.55;38.17;99936.62;1813175;107;26564;-86
2022/07/01 08:01:20;;;;;;;11.00;5.80;;;;;;;34.51;38.28;99936.52;1763306;110;26564;-84
2022/07/01 08:04:49;;;;;;;13.83;7.17;;;;;;;34.58;40.04;99934.66;1763083;109;26110;-83
2022/07/01 08:08:23;;;;;;;6.33;5.10;;;;;;;34.71;37.63;99930.79;1722325;107;25729;-82
2022/07/01 08:12:17;;;;;;;8.13;6.10;;;;;;;34.97;39.99;99934.50;1771086;106;26205;-83
2022/07/01 08:20:16;;;;;;;9.35;5.70;;;;;;;35.61;37.92;99940.30;1810955;106;26155;-83
2022/07/01 08:23:48;;;;;;;11.97;5.70;;;;;;;35.91;36.40;99946.18;1876215;103;26079;-85
2022/07/01 08:27:27;;;;;;;10.10;5.87;;;;;;;35.89;36.38;99948.19;1890092;102;25928;-83
2022/07/01 08:30:53;;;;;;;8.50;5.75;;;;;;;35.94;36.48;99946.80;1834620;105;25970;-84
2022/07/01 08:34:39;;;;;;;13.10;4.85;;;;;;;36.13;37.34;99948.73;1846585;103;25990;-82
2022/07/01 08:42:18;;;;;;;;;;;;;;;;;;;;;
2022/07/01 08:45:53;;;;;;;6.17;5.55;;;;;;;36.77;35.95;99946.05;1872062;102;25998;-81
2022/07/01 08:49:28;;;;;;;;;;;;;;;;;;;;;
2022/07/01 08:52:42;;;;;;;12.30;5.03;;;;;;;37.10;36.48;99942.58;1845876;103;26008;-81
2022/07/01 09:00:18;;;;;;;5.78;4.80;;;;;;;37.70;35.51;99946.36;1878618;102;25873;-81
2022/07/01 09:03:48;;;;;;;4.65;3.90;;;;;;;38.03;32.81;99940.36;1877630;102;26099;-81
2022/07/01 09:07:37;;;;;;;9.63;3.70;;;;;;;38.19;34.20;99947.87;1883289;103;25871;-81
2022/07/01 09:15:26;;;;;;;5.17;3.62;;;;;;;38.01;29.33;99939.67;1983489;96;25743;-84
2022/07/01 09:19:09;;;;;;;8.15;4.22;;;;;;;37.84;30.08;99927.36;1905191;102;25761;-83
2022/07/01 09:22:39;;;;;;;12.23;4.20;;;;;;;37.74;29.36;99937.77;1883897;102;25849;-83
2022/07/01 09:29:47;;;;;;;;;;;;;;;;;;;;;
2022/07/01 09:33:33;;;;;;;8.65;4.45;;;;;;;37.72;29.33;99936.20;1835329;106;26058;-83
2022/07/01 09:37:03;;;;;;;;;;;;;;;37.94;29.29;99928.19;1825674;104;26536;-82
2022/07/01 09:40:49;;;;;;;4.40;4.00;;;;;;;37.85;28.33;99924.47;1814812;106;26048;-84
2022/07/01 09:44:14;;;;;;;6.20;3.83;;;;;;;37.89;28.81;99922.30;1810267;106;26063;-80
2022/07/01 09:47:45;;;;;;;5.25;3.67;;;;;;;37.98;29.49;99919.56;1826265;104;26059;-80
2022/07/01 09:51:15;;;;;;;9.40;4.67;;;;;;;38.25;29.43;99914.59;1832117;104;25879;-81
2022/07/01 09:55:02;;;;;;;13.98;4.05;;;;;;;38.67;28.93;99923.55;1846067;104;26335;-80
2022/07/01 09:58:51;;;;;;;7.60;4.08;;;;;;;38.74;28.47;99918.33;1802850;106;26323;-80
2022/07/01 10:02:28;;;;;;;11.43;4.15;;;;;;;38.61;27.42;99909.69;1774732;110;25986;-81
2022/07/01 10:06:41;;;;;;;8.93;4.62;;;;;;;38.65;27.79;99927.46;1769411;109;26853;-80
2022/07/01 10:10:39;;;;;;;6.50;4.25;;;;;;;38.42;28.12;99924.34;1822626;105;25906;-81
2022/07/01 10:14:23;;;;;;;;;;;;;;;;;;;;;
2022/07/01 10:18:01;;;;;;;9.00;4.80;;;;;;;37.54;29.13;99925.25;1804117;106;25986;-81
2022/07/01 10:27:22;;;;;;;18.07;5.47;;;;;;;36.98;30.15;99926.05;;;;
2022/07/01 10:31:24;;;;;;;5.92;4.25;;;;;;;36.76;30.03;99921.77;1676759;111;25623;-82
2022/07/01 10:34:48;;;;;;;13.75;5.12;;;;;;;36.64;30.53;99919.68;1666718;113;26001;-86
2022/07/01 10:38:21;;;;;;;6.25;4.40;;;;;;;36.87;31.11;99905.30;1639262;117;26123;-82
2022/07/01 10:42:05;;;;;;;5.33;3.77;;;;;;;37.30;33.88;99901.26;1631442;116;26265;-81
2022/07/01 10:45:44;;;;;;;3.58;3.25;;;;;;;37.79;31.86;99901.94;1699266;111;25976;-81
2022/07/01 10:53:10;;;;;;;;;;;;;;;;;;;;;
2022/07/01 11:10:27;;;;;;;9.70;3.60;;;;;;;38.44;28.55;99888.25;1740385;110;25996;-81
2022/07/01 11:13:48;;;;;;;8.70;3.33;;;;;;;38.52;29.53;99884.77;1713118;110;25959;-84
2022/07/01 11:17:28;;;;;;;6.83;3.87;;;;;;;38.76;29.52;99895.88;1688085;113;26158;-82
2022/07/01 11:21:27;;;;;;;4.83;3.37;;;;;;;38.70;26.83;99884.23;1709030;111;26145;-86
2022/07/01 11:25:06;;;;;;;3.87;3.30;;;;;;;38.35;27.78;99870.11;1716436;111;26200;-85
2022/07/01 11:29:13;;;;;;;4.42;4.00;;;;;;;38.27;28.28;99852.69;1747249;107;26794;-83
2022/07/01 11:32:50;;;;;;;9.05;3.98;;;;;;;38.41;27.89;99869.50;1797219;105;26634;-85
2022/07/01 11:40:17;;;;;;;6.60;3.87;;;;;;;38.15;27.57;99859.36;1816462;105;26245;-82
2022/07/01 11:43:48;;;;;;;4.80;3.47;;;;;;;38.38;27.97;99842.61;1789253;105;26027;-83
2022/07/01 11:47:17;;;;;;;6.70;3.50;;;;;;;38.64;28.07;99849.45;1770452;107;26081;-83
2022/07/01 11:50:44;;;;;;;5.55;3.22;;;;;;;39.05;28.91;99844.33;1802922;108;25555;-83
2022/07/01 11:54:26;;;;;;;3.58;3.00;;;;;;;39.36;27.04;99845.58;1783102;109;25881;-82
2022/07/01 11:57:53;;;;;;;3.55;3.22;;;;;;;39.58;27.60;99833.21;1893902;101;26022;-83
2022/07/01 12:01:33;;;;;;;15.15;4.33;;;;;;;39.81;27.48;99836.23;1909304;101;26518;-84
2022/07/01 12:05:02;;;;;;;4.33;3.27;;;;;;;39.63;25.11;99836.31;1933002;99;26036;-84
2022/07/01 12:08:44;;;;;;;17.23;4.37;;;;;;;39.54;27.25;99826.38;1947546;99;25832;-84
2022/07/01 12:12:10;;;;;;;6.10;3.75;;;;;;;39.77;25.70;99834.86;1932975;99;26270;-82
2022/07/01 12:15:36;;;;;;;6.15;3.60;;;;;;;39.48;25.42;99834.37;1916064;100;26102;-82
2022/07/01 12:19:12;;;;;;;5.08;3.25;;;;;;;39.24;25.91;99832.34;1830756;105;26068;-83
2022/07/01 12:22:44;;;;;;;6.12;3.47;;;;;;;39.52;26.69;99831.66;1834867;106;26025;-81
2022/07/01 12:26:21;;;;;;;;;;;;;;;;;;;;;
2022/07/01 12:29:58;;;;;;;8.18;3.60;;;;;;;39.68;24.78;99827.63;1901477;101;25764;-82
2022/07/01 12:33:39;;;;;;;3.98;3.02;;;;;;;39.38;25.66;99824.43;1933434;100;25955;-81
2022/07/01 12:37:25;;;;;;;8.43;3.52;;;;;;;39.44;26.27;99810.66;1911729;101;25855;-81
2022/07/01 12:41:01;;;;;;;4.47;3.45;;;;;;;39.69;25.02;99822.50;1903895;101;25879;-84
2022/07/01 12:44:33;;;;;;;3.92;3.52;;;;;;;39.74;25.59;99812.51;1812241;103;26153;-82
2022/07/01 12:48:10;;;;;;;18.02;3.90;;;;;;;39.92;25.04;99808.28;1840672;103;25984;-81
2022/07/01 12:51:53;;;;;;;;;;;;;;;;;;;;;
2022/07/01 12:55:29;;;;;;;4.97;3.02;;;;;;;39.92;25.50;99802.30;1771355;107;25927;-82
2022/07/01 13:03:11;;;;;;;5.20;3.17;;;;;;;40.52;24.65;99806.14;1804992;106;25603;-80
2022/07/01 13:06:41;;;;;;;4.30;3.35;;;;;;;40.63;25.26;99799.50;1808034;106;25845;-82
2022/07/01 13:10:49;;;;;;;;;;;;;;;;;;;;;
2022/07/01 13:13:52;;;;;;;9.88;3.27;;;;;;;41.02;24.86;99787.86;1765969;109;26063;-81
2022/07/01 13:17:37;;;;;;;8.20;2.80;;;;;;;41.18;24.08;99796.53;1699435;113;25870;-81
2022/07/01 13:21:24;;;;;;;4.90;3.22;;;;;;;41.25;24.77;99793.42;1733900;111;25977;-82
2022/07/01 13:24:41;;;;;;;6.35;3.30;;;;;;;40.61;22.93;99799.36;1743723;111;25984;-82
2022/07/01 13:28:35;;;;;;;6.10;3.50;;;;;;;40.61;22.93;99799.36;1746234;111;25971;-85
2022/07/01 13:31:58;;;;;;;5.03;3.02;;;;;;;40.21;23.39;99801.88;1693535;114;25857;-85
2022/07/01 13:35:25;;;;;;;3.10;2.80;;;;;;;40.13;23.58;99797.72;1703438;114;25779;-83
2022/07/01 13:38:52;;;;;;;5.05;2.87;;;;;;;40.01;23.90;99795.00;1702753;114;25639;-84
2022/07/01 13:42:16;;;;;;;;;;;;;;;40.34;24.81;99791.30;1744278;110;26036;-84
2022/07/01 13:45:45;;;;;;;3.33;2.77;;;;;;;40.42;24.57;99783.61;1735030;112;26540;-83
2022/07/01 13:49:13;;;;;;;4.85;2.92;;;;;;;40.16;24.77;99782.41;1781448;109;26379;-91
2022/07/01 13:52:46;;;;;;;6.42;3.17;;;;;;;40.08;23.97;99776.92;1783770;108;25892;-83
2022/07/01 13:56:29;;;;;;;;;;;;;;;;;;;;;
2022/07/01 14:00:01;;;;;;;6.33;3.07;;;;;;;39.21;23.78;99767.56;1856326;104;25857;-83
2022/07/01 14:03:38;;;;;;;16.00;3.47;;;;;;;38.92;25.46;99766.59;1845742;105;25854;-83
2022/07/01 14:07:31;;;;;;;;;;;;;;;;;;;;;
2022/07/01 14:11:01;;;;;;;5.53;3.05;;;;;;;38.33;25.90;99767.30;1823652;105;26304;-84
2022/07/01 14:15:03;;;;;;;3.35;3.00;;;;;;;38.32;26.16;99764.23;1811235;105;26066;-85
2022/07/01 14:18:08;;;;;;;5.45;3.10;;;;;;;38.02;26.15;99755.46;1773146;109;25868;-83
2022/07/01 14:21:50;;;;;;;5.92;3.20;;;;;;;37.98;26.31;99751.34;1777273;109;25666;-83
2022/07/01 14:25:14;;;;;;;10.23;3.60;;;;;;;37.79;26.11;99753.16;1743863;111;25855;-82
2022/07/01 14:28:57;;;;;;;4.20;3.20;;;;;;;37.74;26.32;99749.21;1745573;110;25871;-82
2022/07/01 14:32:40;;;;;;;11.78;3.65;;;;;;;37.55;26.91;99733.36;1723195;112;26043;-83
2022/07/01 14:36:05;;;;;;;7.50;3.22;;;;;;;37.48;26.97;99742.29;1719058;111;26263;-84
2022/07/01 14:39:41;;;;;;;4.10;3.12;;;;;;;37.53;26.50;99736.75;1719070;112;25893;-82
2022/07/01 14:43:16;;;;;;;8.08;3.75;;;;;;;37.46;26.66;99736.98;1679259;114;26602;-82
2022/07/01 14:47:04;;;;;;;3.58;3.10;;;;;;;37.32;27.55;99732.89;1646604;117;25940;-82
2022/07/01 14:54:47;;;;;;;5.20;3.20;;;;;;;37.43;27.02;99729.61;1628218;119;25879;-78
2022/07/01 14:58:44;;;;;;;9.35;3.12;;;;;;;37.08;27.55;99728.02;1637570;118;26734;-79
2022/07/01 15:02:19;;;;;;;;;;;;;;;;;;;;;
2022/07/01 15:11:15;;;;;;;9.83;3.27;;;;;;;37.47;28.90;99712.89;1627722;118;26233;-82
2022/07/01 15:19:01;;;;;;;3.67;3.37;;;;;;;37.08;27.51;99719.00;1613841;120;25855;-86
2022/07/01 15:22:44;;;;;;;4.20;3.55;;;;;;;36.90;28.14;99716.71;1625871;119;25978;-82
2022/07/01 15:26:06;;;;;;;7.47;3.35;;;;;;;36.84;28.55;99714.93;1642428;117;26373;-88
2022/07/01 15:33:47;;;;;;;8.35;3.85;;;;;;;37.03;28.17;99718.62;1634867;119;26127;-80
2022/07/01 15:37:16;;;;;;;13.32;3.72;;;;;;;36.51;27.44;99724.46;1652521;116;26663;-80
2022/07/01 15:41:38;;;;;;;;;;;;;;;;;;;;;
2022/07/01 15:44:50;;;;;;;5.17;3.85;;;;;;;35.99;28.02;99714.41;1675462;114;26017;-81
2022/07/01 15:48:21;;;;;;;6.65;3.90;;;;;;;35.79;28.19;99733.89;1732600;109;26496;-81
2022/07/01 15:52:06;;;;;;;2.98;2.77;;;;;;;35.67;29.22;99721.45;1729314;111;26052;-80
2022/07/01 15:55:58;;;;;;;5.53;3.17;;;;;;;35.70;29.03;99728.80;1714054;112;26003;-82
2022/07/01 16:00:14;;;;;;;4.42;2.80;;;;;;;35.89;29.55;99723.05;1759024;109;25999;-83
2022/07/01 16:07:28;;;;;;;8.83;3.00;;;;;;;36.03;30.11;99720.44;1726211;112;25892;-83
2022/07/01 16:11:03;;;;;;;3.75;2.87;;;;;;;36.07;30.17;99719.14;1734162;112;26538;-83
2022/07/01 16:14:46;;;;;;;3.20;3.00;;;;;;;36.09;28.95;99718.52;1745528;112;26706;-92
2022/07/01 16:18:30;;;;;;;4.62;4.22;;;;;;;36.13;29.93;99710.43;1744574;111;26658;-82
2022/07/01 16:22:01;;;;;;;4.53;2.92;;;;;;;36.25;28.76;99711.11;1742174;112;26345;-82
2022/07/01 16:25:40;;;;;;;5.47;2.90;;;;;;;36.23;28.56;99715.34;1737706;112;25414;-83
2022/07/01 16:29:02;;;;;;;3.30;2.95;;;;;;;36.06;28.18;99715.58;1730399;111;25994;-83
2022/07/01 16:32:34;;;;;;;6.12;3.55;;;;;;;36.13;29.23;99719.42;1714572;111;25904;-81
2022/07/01 16:39:55;;;;;;;7.12;4.80;;;;;;;35.82;27.30;99721.41;1717128;108;25427;-82
2022/07/01 16:48:03;;;;;;;;;;;;;;;;;;;;;
2022/07/01 16:55:19;;;;;;;;;;;;;;;;;;;;;
2022/07/01 16:59:01;;;;;;;10.75;3.37;;;;;;;34.91;27.70;99681.78;1886176;99;26644;-80
2022/07/01 17:02:36;;;;;;;10.70;3.30;;;;;;;34.87;27.53;99684.41;1814586;107;26743;-81
2022/07/01 17:06:15;;;;;;;4.33;2.62;;;;;;;34.82;27.61;99680.73;1829969;105;25495;-81
2022/07/01 17:10:03;;;;;;;4.50;3.17;;;;;;;34.72;27.40;99667.15;1828581;104;25956;-81
2022/07/01 17:13:36;;;;;;;8.63;3.27;;;;;;;34.68;27.68;99634.58;1826108;105;26651;-81
2022/07/01 17:20:43;;;;;;;9.18;3.12;;;;;;;34.54;27.81;99618.22;1780949;109;25978;-78
2022/07/01 17:24:24;;;;;;;5.25;3.27;;;;;;;34.46;28.07;99611.25;1789946;107;26016;-83
2022/07/01 17:28:28;;;;;;;6.03;3.20;;;;;;;34.41;28.30;99609.43;1746270;111;26168;-83
2022/07/01 17:32:13;;;;;;;7.97;3.72;;;;;;;34.35;28.59;99630.26;1754573;109;25970;-81
2022/07/01 17:35:54;;;;;;;3.40;3.10;;;;;;;34.22;28.78;99635.02;1732551;111;25810;-81
2022/07/01 17:39:27;;;;;;;;;;;;;;;;;;;;;
2022/07/01 17:43:01;;;;;;;3.52;3.20;;;;;;;34.10;29.23;99672.13;1760205;109;26647;-81
2022/07/01 17:46:48;;;;;;;6.42;3.30;;;;;;;33.96;29.53;99680.03;1757618;109;26487;-81
2022/07/01 17:50:23;;;;;;;7.15;3.72;;;;;;;33.87;29.89;99701.59;1772045;108;25827;-80
2022/07/01 17:53:59;;;;;;;5.03;3.22;;;;;;;33.78;30.06;99709.97;1778856;108;25977;-80
2022/07/01 17:57:50;;;;;;;3.95;3.58;;;;;;;33.70;30.37;99720.08;1747388;111;26129;-81
2022/07/01 18:05:38;;;;;;;7.45;4.05;;;;;;;33.60;31.04;99755.12;1764908;108;25961;-81
2022/07/01 18:09:15;;;;;;;6.90;4.10;;;;;;;33.56;31.45;99764.97;1788658;107;25944;-82
2022/07/01 18:13:01;;;;;;;3.35;1.80;;;;;;;33.50;31.73;99754.66;1798716;107;25914;-82
2022/07/01 18:21:08;;;;;;;3.42;2.22;;;;;;;34.09;35.79;99756.98;1831681;104;26910;-82
2022/07/01 18:25:05;;;;;;;3.50;3.25;;;;;;;34.53;35.78;99760.47;1865493;101;25756;-83
2022/07/01 18:29:30;;;;;;;;;;;;;;;;;;;;;
2022/07/01 18:37:07;;;;;;;;;;;;;;;;;;;;;
2022/07/01 18:40:55;;;;;;;4.55;4.15;;;;;;;33.91;33.14;99770.64;1801428;107;26507;-84
2022/07/01 18:51:45;;;;;;;5.90;3.55;;;;;;;33.57;34.26;99781.55;1802030;106;26281;-87
2022/07/01 19:04:00;;;;;;;7.92;4.62;;;;;;;33.19;35.60;99794.94;1765593;109;25930;-82
2022/07/01 19:15:44;;;;;;;;;;;;;;;;;;;;;
2022/07/01 19:19:06;;;;;;;8.98;4.20;;;;;;;32.53;35.94;99901.76;1747162;109;26279;-78
2022/07/01 19:22:27;;;;;;;6.05;4.40;;;;;;;32.50;36.56;99910.08;1754166;111;25894;-78
2022/07/01 19:25:57;;;;;;;12.58;4.67;;;;;;;32.37;37.44;99909.64;1774776;108;25840;-73
2022/07/01 19:29:18;;;;;;;14.73;5.58;;;;;;;32.09;37.93;99899.16;1804588;108;25923;-80
2022/07/01 19:32:41;;;;;;;12.47;4.47;;;;;;;32.03;38.18;99909.05;1804352;106;25840;-78
2022/07/01 19:36:29;;;;;;;9.10;5.58;;;;;;;31.93;39.06;99897.61;1797053;106;26314;-81
2022/07/01 19:40:25;;;;;;;11.88;6.17;;;;;;;31.55;39.29;99877.91;1778495;108;26003;-83
2022/07/01 19:47:32;;;;;;;8.40;4.33;;;;;;;31.38;39.13;99883.16;1773730;109;25957;-75
2022/07/01 19:50:54;;;;;;;14.38;4.22;;;;;;;31.32;40.20;99890.28;1760563;109;26476;-76
2022/07/01 19:54:26;;;;;;;14.13;4.83;;;;;;;31.10;39.96;99886.91;1819403;106;26210;-76
2022/07/01 19:57:47;;;;;;;20.15;4.50;;;;;;;30.93;40.82;99897.00;1853923;104;26392;-77
2022/07/01 20:01:29;;;;;;;11.50;4.25;;;;;;;30.93;40.25;99903.73;1811939;106;26105;-85
2022/07/01 20:08:46;;;;;;;9.40;4.05;;;;;;;31.13;39.65;99914.97;1804719;107;26040;-83
2022/07/01 20:16:40;;;;;;;4.75;3.98;;;;;;;31.07;39.69;99917.59;1783403;105;26449;-82
2022/07/01 20:21:03;;;;;;;11.30;3.90;;;;;;;31.00;40.33;99922.53;1856677;101;26456;-85
2022/07/01 20:29:03;;;;;;;10.00;4.45;;;;;;;30.64;41.54;99912.89;1837157;103;25996;-86
2022/07/01 20:32:33;;;;;;;10.90;4.67;;;;;;;30.46;41.91;99912.30;1844448;103;26597;-86
2022/07/01 20:36:37;;;;;;;;;;;;;;;;;;;;;
2022/07/01 20:40:18;;;;;;;6.92;4.20;;;;;;;30.31;42.24;99923.11;1826383;104;26053;-84
2022/07/01 20:44:39;;;;;;;;;;;;;;;;;;;;;
2022/07/01 20:52:05;;;;;;;19.17;5.87;;;;;;;30.03;42.30;99940.12;1930801;96;25922;-86
2022/07/01 20:55:54;;;;;;;7.90;4.35;;;;;;;29.96;42.46;99942.83;2005139;96;25369;-81
2022/07/01 21:11:45;;;;;;;10.48;5.25;;;;;;;29.72;43.12;99943.90;1929036;100;26693;-81